sensor_id;sensor_type;location;lat;lon;timestamp;pressure;altitude;pressure_sealevel;temperature;humidity
74798;BME280;63326;45.088;7.658;2023-04-23T00:01:44;98427.91;;;15.62;62.16
74798;BME280;63326;45.088;7.658;2023-04-23T00:04:14;98444.34;;;15.61;62.61
74798;BME280;63326;45.088;7.658;2023-04-23T00:06:45;98441.81;;;15.59;62.55
74798;BME280;63326;45.088;7.658;2023-04-23T00:09:14;98429.38;;;15.58;62.20
74798;BME280;63326;45.088;7.658;2023-04-23T00:11:42;98424.44;;;15.48;62.56
74798;BME280;63326;45.088;7.658;2023-04-23T00:14:09;98425.94;;;15.44;63.15
74798;BME280;63326;45.088;7.658;2023-04-23T00:16:38;98417.84;;;15.44;62.58
74798;BME280;63326;45.088;7.658;2023-04-23T00:19:05;98416.66;;;15.34;62.89
74798;BME280;63326;45.088;7.658;2023-04-23T00:21:32;98414.34;;;15.37;63.06
74798;BME280;63326;45.088;7.658;2023-04-23T00:23:59;98430.53;;;15.44;63.01
74798;BME280;63326;45.088;7.658;2023-04-23T00:26:25;98423.47;;;15.43;63.51
74798;BME280;63326;45.088;7.658;2023-04-23T00:28:52;98424.09;;;15.38;63.85
74798;BME280;63326;45.088;7.658;2023-04-23T00:31:19;98418.72;;;15.38;63.83
74798;BME280;63326;45.088;7.658;2023-04-23T00:33:48;98416.22;;;15.37;63.82
74798;BME280;63326;45.088;7.658;2023-04-23T00:36:15;98419.72;;;15.44;63.93
74798;BME280;63326;45.088;7.658;2023-04-23T00:38:42;98412.84;;;15.41;63.72
74798;BME280;63326;45.088;7.658;2023-04-23T00:41:08;98416.84;;;15.39;63.13
74798;BME280;63326;45.088;7.658;2023-04-23T00:43:36;98418.94;;;15.37;63.42
74798;BME280;63326;45.088;7.658;2023-04-23T00:46:03;98413.16;;;15.33;63.14
74798;BME280;63326;45.088;7.658;2023-04-23T00:48:33;98410.84;;;15.30;63.41
74798;BME280;63326;45.088;7.658;2023-04-23T00:51:04;98415.19;;;15.38;63.61
74798;BME280;63326;45.088;7.658;2023-04-23T00:53:32;98410.47;;;15.26;64.06
74798;BME280;63326;45.088;7.658;2023-04-23T00:56:01;98407.41;;;15.23;64.48
74798;BME280;63326;45.088;7.658;2023-04-23T00:58:30;98390.63;;;15.14;64.21
74798;BME280;63326;45.088;7.658;2023-04-23T01:00:57;98408.03;;;15.18;64.84
74798;BME280;63326;45.088;7.658;2023-04-23T01:03:25;98399.72;;;15.20;64.88
74798;BME280;63326;45.088;7.658;2023-04-23T01:05:52;98402.03;;;15.16;64.80
74798;BME280;63326;45.088;7.658;2023-04-23T01:08:22;98401.00;;;15.11;65.43
74798;BME280;63326;45.088;7.658;2023-04-23T01:10:51;98390.66;;;15.08;65.47
74798;BME280;63326;45.088;7.658;2023-04-23T01:13:19;98388.16;;;15.13;65.19
74798;BME280;63326;45.088;7.658;2023-04-23T01:15:47;98380.91;;;15.07;64.83
74798;BME280;63326;45.088;7.658;2023-04-23T01:18:14;98379.63;;;15.09;64.53
74798;BME280;63326;45.088;7.658;2023-04-23T01:20:41;98387.72;;;15.09;64.45
74798;BME280;63326;45.088;7.658;2023-04-23T01:23:09;98383.59;;;15.07;64.26
74798;BME280;63326;45.088;7.658;2023-04-23T01:25:36;98383.97;;;15.10;64.30
74798;BME280;63326;45.088;7.658;2023-04-23T01:28:04;98380.47;;;15.10;64.19
74798;BME280;63326;45.088;7.658;2023-04-23T01:30:32;98379.03;;;15.07;64.48
74798;BME280;63326;45.088;7.658;2023-04-23T01:33:00;98380.22;;;15.11;64.58
74798;BME280;63326;45.088;7.658;2023-04-23T01:35:27;98367.88;;;14.97;64.68
74798;BME280;63326;45.088;7.658;2023-04-23T01:37:56;98378.47;;;14.98;64.93
74798;BME280;63326;45.088;7.658;2023-04-23T01:40:24;98382.66;;;14.94;65.05
74798;BME280;63326;45.088;7.658;2023-04-23T01:42:50;98375.19;;;14.90;65.50
74798;BME280;63326;45.088;7.658;2023-04-23T01:45:17;98377.13;;;14.83;65.24
74798;BME280;63326;45.088;7.658;2023-04-23T01:47:47;98376.91;;;14.78;66.25
74798;BME280;63326;45.088;7.658;2023-04-23T01:50:14;98377.16;;;14.69;66.29
74798;BME280;63326;45.088;7.658;2023-04-23T01:52:41;98382.78;;;14.68;66.44
74798;BME280;63326;45.088;7.658;2023-04-23T01:55:10;98381.97;;;14.61;67.33
74798;BME280;63326;45.088;7.658;2023-04-23T01:57:36;98387.41;;;14.54;67.25
74798;BME280;63326;45.088;7.658;2023-04-23T02:00:06;98396.13;;;14.50;66.66
74798;BME280;63326;45.088;7.658;2023-04-23T02:02:41;98395.09;;;14.44;67.55
74798;BME280;63326;45.088;7.658;2023-04-23T02:05:14;98396.16;;;14.30;68.13
74798;BME280;63326;45.088;7.658;2023-04-23T02:07:42;98386.88;;;14.19;67.69
74798;BME280;63326;45.088;7.658;2023-04-23T02:10:10;98396.22;;;14.23;68.22
74798;BME280;63326;45.088;7.658;2023-04-23T02:12:36;98404.31;;;14.17;68.17
74798;BME280;63326;45.088;7.658;2023-04-23T02:15:05;98379.25;;;14.03;67.88
74798;BME280;63326;45.088;7.658;2023-04-23T02:17:32;98392.69;;;14.09;68.61
74798;BME280;63326;45.088;7.658;2023-04-23T02:19:59;98399.78;;;14.04;68.98
74798;BME280;63326;45.088;7.658;2023-04-23T02:22:26;98401.25;;;14.00;68.88
74798;BME280;63326;45.088;7.658;2023-04-23T02:24:54;98404.78;;;14.00;69.36
74798;BME280;63326;45.088;7.658;2023-04-23T02:27:20;98406.00;;;14.04;68.88
74798;BME280;63326;45.088;7.658;2023-04-23T02:29:47;98386.50;;;13.96;69.02
74798;BME280;63326;45.088;7.658;2023-04-23T02:32:14;98401.00;;;14.08;68.61
74798;BME280;63326;45.088;7.658;2023-04-23T02:34:41;98394.38;;;14.10;68.49
74798;BME280;63326;45.088;7.658;2023-04-23T02:37:08;98379.47;;;14.01;68.95
74798;BME280;63326;45.088;7.658;2023-04-23T02:39:35;98391.47;;;14.05;68.76
74798;BME280;63326;45.088;7.658;2023-04-23T02:42:04;98400.38;;;14.12;68.36
74798;BME280;63326;45.088;7.658;2023-04-23T02:44:30;98386.91;;;13.99;68.74
74798;BME280;63326;45.088;7.658;2023-04-23T02:46:57;98382.56;;;14.11;68.43
74798;BME280;63326;45.088;7.658;2023-04-23T02:49:24;98391.25;;;14.13;68.31
74798;BME280;63326;45.088;7.658;2023-04-23T02:51:51;98378.22;;;14.04;69.04
74798;BME280;63326;45.088;7.658;2023-04-23T02:54:18;98388.38;;;14.02;69.23
74798;BME280;63326;45.088;7.658;2023-04-23T02:56:45;98391.69;;;13.97;69.70
74798;BME280;63326;45.088;7.658;2023-04-23T02:59:12;98383.03;;;13.75;70.53
74798;BME280;63326;45.088;7.658;2023-04-23T03:01:39;98371.63;;;13.73;70.37
74798;BME280;63326;45.088;7.658;2023-04-23T03:04:08;98383.84;;;13.76;70.15
74798;BME280;63326;45.088;7.658;2023-04-23T03:06:35;98371.00;;;13.65;69.77
74798;BME280;63326;45.088;7.658;2023-04-23T03:09:02;98376.81;;;13.62;70.06
74798;BME280;63326;45.088;7.658;2023-04-23T03:11:30;98368.72;;;13.48;70.79
74798;BME280;63326;45.088;7.658;2023-04-23T03:13:57;98377.47;;;13.50;70.70
74798;BME280;63326;45.088;7.658;2023-04-23T03:16:26;98370.81;;;13.46;70.87
74798;BME280;63326;45.088;7.658;2023-04-23T03:18:54;98389.69;;;13.53;71.00
74798;BME280;63326;45.088;7.658;2023-04-23T03:21:21;98381.41;;;13.41;71.42
74798;BME280;63326;45.088;7.658;2023-04-23T03:23:48;98387.81;;;13.40;72.11
74798;BME280;63326;45.088;7.658;2023-04-23T03:26:16;98390.84;;;13.17;73.61
74798;BME280;63326;45.088;7.658;2023-04-23T03:28:43;98396.25;;;13.11;73.73
74798;BME280;63326;45.088;7.658;2023-04-23T03:31:09;98379.44;;;13.02;73.45
74798;BME280;63326;45.088;7.658;2023-04-23T03:33:36;98375.91;;;12.95;73.18
74798;BME280;63326;45.088;7.658;2023-04-23T03:36:03;98379.00;;;12.85;73.87
74798;BME280;63326;45.088;7.658;2023-04-23T03:38:31;98382.09;;;12.82;74.66
74798;BME280;63326;45.088;7.658;2023-04-23T03:41:00;98375.03;;;12.75;74.51
74798;BME280;63326;45.088;7.658;2023-04-23T03:43:27;98366.75;;;12.76;74.73
74798;BME280;63326;45.088;7.658;2023-04-23T03:46:03;98372.41;;;12.88;73.92
74798;BME280;63326;45.088;7.658;2023-04-23T03:48:34;98377.13;;;12.86;74.11
74798;BME280;63326;45.088;7.658;2023-04-23T03:51:06;98379.00;;;12.85;74.17
74798;BME280;63326;45.088;7.658;2023-04-23T03:53:40;98380.03;;;12.78;74.47
74798;BME280;63326;45.088;7.658;2023-04-23T03:56:33;98378.13;;;12.72;74.75
74798;BME280;63326;45.088;7.658;2023-04-23T03:59:29;98386.00;;;12.73;74.69
74798;BME280;63326;45.088;7.658;2023-04-23T04:01:58;98383.06;;;12.61;74.83
74798;BME280;63326;45.088;7.658;2023-04-23T04:04:25;98395.88;;;12.53;75.82
74798;BME280;63326;45.088;7.658;2023-04-23T04:06:54;98389.66;;;12.52;75.22
74798;BME280;63326;45.088;7.658;2023-04-23T04:09:25;98390.69;;;12.51;75.64
74798;BME280;63326;45.088;7.658;2023-04-23T04:11:52;98383.63;;;12.44;76.22
74798;BME280;63326;45.088;7.658;2023-04-23T04:14:21;98391.06;;;12.42;75.79
74798;BME280;63326;45.088;7.658;2023-04-23T04:16:48;98387.50;;;12.34;76.62
74798;BME280;63326;45.088;7.658;2023-04-23T04:19:15;98384.16;;;12.26;76.38
74798;BME280;63326;45.088;7.658;2023-04-23T04:21:42;98365.28;;;12.13;76.74
74798;BME280;63326;45.088;7.658;2023-04-23T04:24:08;98372.94;;;12.16;77.07
74798;BME280;63326;45.088;7.658;2023-04-23T04:26:36;98380.47;;;12.27;76.54
74798;BME280;63326;45.088;7.658;2023-04-23T04:29:03;98366.72;;;12.15;76.76
74798;BME280;63326;45.088;7.658;2023-04-23T04:31:30;98353.88;;;12.04;77.44
74798;BME280;63326;45.088;7.658;2023-04-23T04:33:57;98378.28;;;12.09;77.66
74798;BME280;63326;45.088;7.658;2023-04-23T04:36:24;98373.69;;;12.03;78.19
74798;BME280;63326;45.088;7.658;2023-04-23T04:38:52;98369.50;;;11.94;78.13
74798;BME280;63326;45.088;7.658;2023-04-23T04:41:21;98375.13;;;11.99;78.00
74798;BME280;63326;45.088;7.658;2023-04-23T04:43:51;98376.78;;;12.00;78.00
74798;BME280;63326;45.088;7.658;2023-04-23T04:46:17;98371.00;;;12.03;78.18
74798;BME280;63326;45.088;7.658;2023-04-23T04:48:46;98368.47;;;11.95;77.71
74798;BME280;63326;45.088;7.658;2023-04-23T04:51:13;98374.88;;;11.94;78.33
74798;BME280;63326;45.088;7.658;2023-04-23T04:53:40;98380.03;;;11.89;78.60
74798;BME280;63326;45.088;7.658;2023-04-23T04:56:07;98381.91;;;11.95;77.88
74798;BME280;63326;45.088;7.658;2023-04-23T04:58:34;98390.81;;;11.95;77.98
74798;BME280;63326;45.088;7.658;2023-04-23T05:01:01;98390.19;;;11.93;77.71
74798;BME280;63326;45.088;7.658;2023-04-23T05:03:28;98359.91;;;11.78;77.74
74798;BME280;63326;45.088;7.658;2023-04-23T05:05:55;98394.97;;;11.98;78.04
74798;BME280;63326;45.088;7.658;2023-04-23T05:08:24;98385.91;;;12.05;77.40
74798;BME280;63326;45.088;7.658;2023-04-23T05:10:51;98391.72;;;12.09;77.01
74798;BME280;63326;45.088;7.658;2023-04-23T05:13:19;98384.19;;;11.91;77.50
74798;BME280;63326;45.088;7.658;2023-04-23T05:15:46;98380.81;;;11.82;77.28
74798;BME280;63326;45.088;7.658;2023-04-23T05:18:12;98391.63;;;11.89;77.13
74798;BME280;63326;45.088;7.658;2023-04-23T05:20:39;98380.09;;;11.74;77.53
74798;BME280;63326;45.088;7.658;2023-04-23T05:23:07;98391.34;;;11.84;77.09
74798;BME280;63326;45.088;7.658;2023-04-23T05:25:33;98399.88;;;11.88;77.38
74798;BME280;63326;45.088;7.658;2023-04-23T05:28:01;98395.56;;;11.93;77.16
74798;BME280;63326;45.088;7.658;2023-04-23T05:30:28;98402.47;;;12.09;76.41
74798;BME280;63326;45.088;7.658;2023-04-23T05:32:54;98389.25;;;12.14;75.85
74798;BME280;63326;45.088;7.658;2023-04-23T05:35:21;98388.06;;;12.17;75.35
74798;BME280;63326;45.088;7.658;2023-04-23T05:37:48;98397.31;;;12.07;75.81
74798;BME280;63326;45.088;7.658;2023-04-23T05:40:15;98390.34;;;12.20;75.45
74798;BME280;63326;45.088;7.658;2023-04-23T05:42:41;98386.69;;;12.34;74.55
74798;BME280;63326;45.088;7.658;2023-04-23T05:45:08;98389.66;;;12.52;74.17
74798;BME280;63326;45.088;7.658;2023-04-23T05:47:35;98403.38;;;12.71;74.01
74798;BME280;63326;45.088;7.658;2023-04-23T05:50:02;98400.91;;;12.76;73.90
74798;BME280;63326;45.088;7.658;2023-04-23T05:52:28;98397.81;;;12.79;73.68
74798;BME280;63326;45.088;7.658;2023-04-23T05:55:01;98398.47;;;12.87;73.04
74798;BME280;63326;45.088;7.658;2023-04-23T05:57:27;98404.28;;;13.04;72.59
74798;BME280;63326;45.088;7.658;2023-04-23T05:59:54;98389.59;;;13.07;72.28
74798;BME280;63326;45.088;7.658;2023-04-23T06:02:21;98407.47;;;13.27;71.80
74798;BME280;63326;45.088;7.658;2023-04-23T06:04:50;98402.94;;;13.41;71.32
74798;BME280;63326;45.088;7.658;2023-04-23T06:07:17;98399.63;;;13.39;70.88
74798;BME280;63326;45.088;7.658;2023-04-23T06:09:44;98409.97;;;13.36;71.61
74798;BME280;63326;45.088;7.658;2023-04-23T06:12:10;98408.09;;;13.43;71.67
74798;BME280;63326;45.088;7.658;2023-04-23T06:14:37;98414.53;;;13.62;71.05
74798;BME280;63326;45.088;7.658;2023-04-23T06:17:04;98412.88;;;13.74;70.58
74798;BME280;63326;45.088;7.658;2023-04-23T06:19:31;98418.66;;;13.91;70.06
74798;BME280;63326;45.088;7.658;2023-04-23T06:21:58;98419.88;;;14.08;69.53
74798;BME280;63326;45.088;7.658;2023-04-23T06:24:25;98399.53;;;14.19;68.80
74798;BME280;63326;45.088;7.658;2023-04-23T06:26:51;98406.09;;;14.43;68.41
74798;BME280;63326;45.088;7.658;2023-04-23T06:29:19;98414.34;;;14.67;67.67
74798;BME280;63326;45.088;7.658;2023-04-23T06:31:56;98413.38;;;14.93;67.04
74798;BME280;63326;45.088;7.658;2023-04-23T06:34:23;98397.94;;;15.07;66.27
74798;BME280;63326;45.088;7.658;2023-04-23T06:36:50;98404.34;;;15.13;65.11
74798;BME280;63326;45.088;7.658;2023-04-23T06:39:17;98391.19;;;15.23;65.11
74798;BME280;63326;45.088;7.658;2023-04-23T06:41:44;98381.50;;;15.40;64.48
74798;BME280;63326;45.088;7.658;2023-04-23T06:44:19;98397.84;;;15.77;63.45
74798;BME280;63326;45.088;7.658;2023-04-23T06:46:50;98364.00;;;15.74;62.80
74798;BME280;63326;45.088;7.658;2023-04-23T06:49:17;98383.72;;;16.18;61.59
74798;BME280;63326;45.088;7.658;2023-04-23T06:51:44;98389.72;;;16.38;60.35
74798;BME280;63326;45.088;7.658;2023-04-23T06:54:10;98401.50;;;16.62;60.05
74798;BME280;63326;45.088;7.658;2023-04-23T06:56:37;98359.66;;;16.47;59.83
74798;BME280;63326;45.088;7.658;2023-04-23T06:59:04;98384.56;;;16.55;59.40
74798;BME280;63326;45.088;7.658;2023-04-23T07:01:34;98395.50;;;16.79;59.91
74798;BME280;63326;45.088;7.658;2023-04-23T07:04:01;98385.00;;;16.70;59.54
74798;BME280;63326;45.088;7.658;2023-04-23T07:06:27;98397.22;;;16.91;59.29
74798;BME280;63326;45.088;7.658;2023-04-23T07:08:54;98391.06;;;16.84;58.81
74798;BME280;63326;45.088;7.658;2023-04-23T07:11:21;98412.50;;;16.86;59.08
74798;BME280;63326;45.088;7.658;2023-04-23T07:13:47;98414.53;;;16.90;58.91
74798;BME280;63326;45.088;7.658;2023-04-23T07:16:14;98410.47;;;16.81;59.29
74798;BME280;63326;45.088;7.658;2023-04-23T07:18:41;98407.44;;;16.89;59.22
74798;BME280;63326;45.088;7.658;2023-04-23T07:21:07;98406.69;;;17.01;59.33
74798;BME280;63326;45.088;7.658;2023-04-23T07:23:34;98402.28;;;17.18;58.16
74798;BME280;63326;45.088;7.658;2023-04-23T07:26:01;98395.94;;;17.36;56.83
74798;BME280;63326;45.088;7.658;2023-04-23T07:28:27;98401.16;;;17.37;57.28
74798;BME280;63326;45.088;7.658;2023-04-23T07:30:54;98392.56;;;17.52;57.29
74798;BME280;63326;45.088;7.658;2023-04-23T07:33:21;98384.66;;;17.50;56.74
74798;BME280;63326;45.088;7.658;2023-04-23T07:35:48;98392.56;;;17.64;56.75
74798;BME280;63326;45.088;7.658;2023-04-23T07:38:15;98382.59;;;17.76;56.13
74798;BME280;63326;45.088;7.658;2023-04-23T07:40:41;98368.47;;;17.74;55.22
74798;BME280;63326;45.088;7.658;2023-04-23T07:43:08;98396.28;;;17.81;55.05
74798;BME280;63326;45.088;7.658;2023-04-23T07:45:35;98391.78;;;17.87;55.33
74798;BME280;63326;45.088;7.658;2023-04-23T07:48:02;98404.41;;;18.04;55.04
74798;BME280;63326;45.088;7.658;2023-04-23T07:50:28;98386.63;;;18.08;54.21
74798;BME280;63326;45.088;7.658;2023-04-23T07:52:55;98403.00;;;18.25;54.14
74798;BME280;63326;45.088;7.658;2023-04-23T07:55:22;98396.69;;;18.60;52.94
74798;BME280;63326;45.088;7.658;2023-04-23T07:57:48;98376.59;;;18.73;51.99
74798;BME280;63326;45.088;7.658;2023-04-23T08:00:15;98387.50;;;19.01;51.22
74798;BME280;63326;45.088;7.658;2023-04-23T08:02:42;98383.34;;;18.98;51.63
74798;BME280;63326;45.088;7.658;2023-04-23T08:05:09;98379.22;;;19.24;51.16
74798;BME280;63326;45.088;7.658;2023-04-23T08:07:36;98381.78;;;19.48;50.03
74798;BME280;63326;45.088;7.658;2023-04-23T08:10:03;98373.22;;;19.90;49.17
74798;BME280;63326;45.088;7.658;2023-04-23T08:12:32;98351.59;;;20.17;48.32
74798;BME280;63326;45.088;7.658;2023-04-23T08:15:02;98371.81;;;20.42;47.47
74798;BME280;63326;45.088;7.658;2023-04-23T08:17:35;98367.78;;;20.67;47.31
74798;BME280;63326;45.088;7.658;2023-04-23T08:20:03;98370.56;;;20.72;46.02
74798;BME280;63326;45.088;7.658;2023-04-23T08:22:32;98363.31;;;20.17;47.39
74798;BME280;63326;45.088;7.658;2023-04-23T08:24:58;98363.44;;;20.44;46.76
74798;BME280;63326;45.088;7.658;2023-04-23T08:27:25;98371.34;;;20.67;46.30
74798;BME280;63326;45.088;7.658;2023-04-23T08:29:52;98375.63;;;20.85;45.57
74798;BME280;63326;45.088;7.658;2023-04-23T08:32:18;98386.53;;;21.12;44.83
74798;BME280;63326;45.088;7.658;2023-04-23T08:34:46;98377.38;;;21.23;44.36
74798;BME280;63326;45.088;7.658;2023-04-23T08:37:12;98377.56;;;21.71;44.23
74798;BME280;63326;45.088;7.658;2023-04-23T08:39:55;98390.47;;;21.48;43.87
74798;BME280;63326;45.088;7.658;2023-04-23T08:42:41;98380.88;;;22.10;43.11
74798;BME280;63326;45.088;7.658;2023-04-23T08:45:10;98381.63;;;22.48;41.89
74798;BME280;63326;45.088;7.658;2023-04-23T08:47:39;98383.47;;;22.89;41.11
74798;BME280;63326;45.088;7.658;2023-04-23T08:50:14;98384.38;;;23.20;40.21
74798;BME280;63326;45.088;7.658;2023-04-23T08:52:49;98371.53;;;23.26;39.13
74798;BME280;63326;45.088;7.658;2023-04-23T08:55:18;98379.81;;;23.82;37.70
74798;BME280;63326;45.088;7.658;2023-04-23T08:57:47;98367.38;;;24.46;36.22
74798;BME280;63326;45.088;7.658;2023-04-23T09:00:16;98362.66;;;24.56;35.96
74798;BME280;63326;45.088;7.658;2023-04-23T09:02:45;98370.69;;;25.07;35.71
74798;BME280;63326;45.088;7.658;2023-04-23T09:05:12;98374.00;;;25.04;34.85
74798;BME280;63326;45.088;7.658;2023-04-23T09:07:40;98365.75;;;25.43;34.42
74798;BME280;63326;45.088;7.658;2023-04-23T09:10:08;98344.16;;;25.37;33.91
74798;BME280;63326;45.088;7.658;2023-04-23T09:12:39;98352.50;;;25.55;33.80
74798;BME280;63326;45.088;7.658;2023-04-23T09:15:07;98355.44;;;25.98;32.99
74798;BME280;63326;45.088;7.658;2023-04-23T09:17:44;98347.44;;;25.34;33.91
74798;BME280;63326;45.088;7.658;2023-04-23T09:20:12;98349.56;;;24.43;35.09
74798;BME280;63326;45.088;7.658;2023-04-23T09:22:50;98345.38;;;24.61;35.05
74798;BME280;63326;45.088;7.658;2023-04-23T09:25:22;98343.13;;;25.27;34.41
74798;BME280;63326;45.088;7.658;2023-04-23T09:27:51;98344.59;;;25.49;34.17
74798;BME280;63326;45.088;7.658;2023-04-23T09:30:18;98352.06;;;25.77;32.82
74798;BME280;63326;45.088;7.658;2023-04-23T09:32:46;98339.63;;;26.14;32.67
74798;BME280;63326;45.088;7.658;2023-04-23T09:35:15;98339.00;;;26.46;30.60
74798;BME280;63326;45.088;7.658;2023-04-23T09:37:47;98326.75;;;26.81;30.34
74798;BME280;63326;45.088;7.658;2023-04-23T09:40:20;98336.22;;;27.32;28.31
74798;BME280;63326;45.088;7.658;2023-04-23T09:42:48;98329.16;;;27.25;28.73
74798;BME280;63326;45.088;7.658;2023-04-23T09:45:16;98321.56;;;26.56;30.23
74798;BME280;63326;45.088;7.658;2023-04-23T09:47:53;98321.16;;;26.20;31.26
74798;BME280;63326;45.088;7.658;2023-04-23T09:50:50;98304.16;;;26.41;30.75
74798;BME280;63326;45.088;7.658;2023-04-23T09:53:20;98310.50;;;26.61;31.13
74798;BME280;63326;45.088;7.658;2023-04-23T09:55:47;98308.38;;;26.58;29.39
74798;BME280;63326;45.088;7.658;2023-04-23T09:58:14;98299.78;;;27.02;29.12
74798;BME280;63326;45.088;7.658;2023-04-23T10:00:41;98298.13;;;27.01;28.66
74798;BME280;63326;45.088;7.658;2023-04-23T10:03:09;98301.44;;;26.60;29.39
74798;BME280;63326;45.088;7.658;2023-04-23T10:05:40;98289.69;;;27.49;27.96
74798;BME280;63326;45.088;7.658;2023-04-23T10:08:26;98288.69;;;27.07;27.76
74798;BME280;63326;45.088;7.658;2023-04-23T10:10:53;98281.16;;;27.32;26.80
74798;BME280;63326;45.088;7.658;2023-04-23T10:13:40;98293.38;;;27.25;26.72
74798;BME280;63326;45.088;7.658;2023-04-23T10:16:07;98288.78;;;27.21;26.85
74798;BME280;63326;45.088;7.658;2023-04-23T10:18:49;98287.59;;;25.99;28.70
74798;BME280;63326;45.088;7.658;2023-04-23T10:21:16;98274.78;;;25.89;28.64
74798;BME280;63326;45.088;7.658;2023-04-23T10:23:46;98291.00;;;26.81;27.25
74798;BME280;63326;45.088;7.658;2023-04-23T10:26:14;98284.78;;;27.78;27.01
74798;BME280;63326;45.088;7.658;2023-04-23T10:28:46;98292.59;;;28.45;25.92
74798;BME280;63326;45.088;7.658;2023-04-23T10:31:13;98280.00;;;28.66;24.50
74798;BME280;63326;45.088;7.658;2023-04-23T10:33:41;98274.81;;;27.82;25.49
74798;BME280;63326;45.088;7.658;2023-04-23T10:36:24;98285.09;;;27.77;26.53
74798;BME280;63326;45.088;7.658;2023-04-23T10:38:53;98293.19;;;27.36;26.80
74798;BME280;63326;45.088;7.658;2023-04-23T10:41:28;98283.28;;;27.21;26.68
74798;BME280;63326;45.088;7.658;2023-04-23T10:43:56;98292.38;;;26.36;28.41
74798;BME280;63326;45.088;7.658;2023-04-23T10:46:32;98271.84;;;26.04;28.90
74798;BME280;63326;45.088;7.658;2023-04-23T10:51:35;98277.88;;;26.30;28.46
74798;BME280;63326;45.088;7.658;2023-04-23T10:54:06;98257.50;;;26.55;27.75
74798;BME280;63326;45.088;7.658;2023-04-23T10:56:33;98263.28;;;26.78;27.65
74798;BME280;63326;45.088;7.658;2023-04-23T10:59:00;98275.94;;;26.31;28.07
74798;BME280;63326;45.088;7.658;2023-04-23T11:01:27;98259.28;;;27.08;27.61
74798;BME280;63326;45.088;7.658;2023-04-23T11:03:55;98248.41;;;27.63;26.69
74798;BME280;63326;45.088;7.658;2023-04-23T11:12:00;98243.47;;;29.19;23.85
74798;BME280;63326;45.088;7.658;2023-04-23T11:14:47;98242.34;;;28.07;25.66
74798;BME280;63326;45.088;7.658;2023-04-23T11:17:17;98236.66;;;27.43;26.46
74798;BME280;63326;45.088;7.658;2023-04-23T11:20:09;98227.88;;;26.90;27.85
74798;BME280;63326;45.088;7.658;2023-04-23T11:22:44;98211.38;;;26.90;27.54
74798;BME280;63326;45.088;7.658;2023-04-23T11:25:18;98207.81;;;27.54;26.77
74798;BME280;63326;45.088;7.658;2023-04-23T11:27:46;98217.75;;;27.04;27.75
74798;BME280;63326;45.088;7.658;2023-04-23T11:30:15;98217.19;;;26.51;28.22
74798;BME280;63326;45.088;7.658;2023-04-23T11:32:46;98230.25;;;25.63;29.68
74798;BME280;63326;45.088;7.658;2023-04-23T11:35:16;98215.38;;;24.72;32.41
74798;BME280;63326;45.088;7.658;2023-04-23T11:37:44;98220.00;;;24.77;32.38
74798;BME280;63326;45.088;7.658;2023-04-23T11:40:13;98208.84;;;25.07;31.85
74798;BME280;63326;45.088;7.658;2023-04-23T11:42:45;98210.63;;;25.22;31.73
74798;BME280;63326;45.088;7.658;2023-04-23T11:47:47;98163.72;;;24.50;32.82
74798;BME280;63326;45.088;7.658;2023-04-23T11:50:21;98153.84;;;24.54;32.74
74798;BME280;63326;45.088;7.658;2023-04-23T11:52:49;98171.66;;;24.52;33.18
74798;BME280;63326;45.088;7.658;2023-04-23T11:55:16;98183.94;;;24.59;33.16
74798;BME280;63326;45.088;7.658;2023-04-23T11:57:44;98181.56;;;24.48;33.21
74798;BME280;63326;45.088;7.658;2023-04-23T12:02:58;98176.69;;;24.79;33.12
74798;BME280;63326;45.088;7.658;2023-04-23T12:05:30;98166.00;;;24.77;32.92
74798;BME280;63326;45.088;7.658;2023-04-23T12:08:09;98149.25;;;24.79;32.45
74798;BME280;63326;45.088;7.658;2023-04-23T12:10:52;98165.66;;;25.95;30.99
74798;BME280;63326;45.088;7.658;2023-04-23T12:13:30;98165.78;;;26.08;31.22
74798;BME280;63326;45.088;7.658;2023-04-23T12:16:01;98166.31;;;26.29;30.39
74798;BME280;63326;45.088;7.658;2023-04-23T12:18:32;98183.13;;;26.28;30.10
74798;BME280;63326;45.088;7.658;2023-04-23T12:23:32;98176.75;;;25.61;31.29
74798;BME280;63326;45.088;7.658;2023-04-23T12:26:01;98167.22;;;24.61;32.99
74798;BME280;63326;45.088;7.658;2023-04-23T12:28:32;98155.94;;;24.67;32.58
74798;BME280;63326;45.088;7.658;2023-04-23T12:31:00;98161.50;;;24.57;33.14
74798;BME280;63326;45.088;7.658;2023-04-23T12:33:29;98148.28;;;25.04;32.27
74798;BME280;63326;45.088;7.658;2023-04-23T12:35:56;98158.47;;;25.51;31.40
74798;BME280;63326;45.088;7.658;2023-04-23T12:40:56;98152.28;;;25.64;31.29
74798;BME280;63326;45.088;7.658;2023-04-23T12:43:24;98149.91;;;25.81;31.06
74798;BME280;63326;45.088;7.658;2023-04-23T12:45:53;98154.09;;;25.50;31.27
74798;BME280;63326;45.088;7.658;2023-04-23T12:48:20;98139.41;;;25.65;31.00
74798;BME280;63326;45.088;7.658;2023-04-23T12:50:47;98127.75;;;25.25;31.52
74798;BME280;63326;45.088;7.658;2023-04-23T12:53:14;98125.66;;;25.65;30.97
74798;BME280;63326;45.088;7.658;2023-04-23T12:55:40;98121.16;;;25.74;30.75
74798;BME280;63326;45.088;7.658;2023-04-23T12:58:10;98117.88;;;26.14;29.79
74798;BME280;63326;45.088;7.658;2023-04-23T13:00:36;98110.38;;;26.20;30.29
74798;BME280;63326;45.088;7.658;2023-04-23T13:03:04;98098.81;;;26.61;30.00
74798;BME280;63326;45.088;7.658;2023-04-23T13:05:31;98092.69;;;26.64;29.52
74798;BME280;63326;45.088;7.658;2023-04-23T13:07:57;98077.56;;;27.26;28.38
74798;BME280;63326;45.088;7.658;2023-04-23T13:10:24;98090.34;;;27.50;28.38
74798;BME280;63326;45.088;7.658;2023-04-23T13:12:51;98079.41;;;27.59;28.29
74798;BME280;63326;45.088;7.658;2023-04-23T13:15:17;98088.50;;;26.66;29.76
74798;BME280;63326;45.088;7.658;2023-04-23T13:17:46;98085.41;;;26.35;30.29
74798;BME280;63326;45.088;7.658;2023-04-23T13:20:12;98077.06;;;26.27;30.19
74798;BME280;63326;45.088;7.658;2023-04-23T13:22:39;98088.75;;;25.95;30.78
74798;BME280;63326;45.088;7.658;2023-04-23T13:25:06;98089.22;;;25.59;31.33
74798;BME280;63326;45.088;7.658;2023-04-23T13:27:32;98090.16;;;25.49;31.79